| Date | Time | Temp. (oF) | Dew Point (oF) | Rel. Hum. (%) | Press. (in.) | Wind Dir. | Wind Speed (mph) | Hourly Rainfall (in.) |
|
|---|---|---|---|---|---|---|---|---|---|
| 1 | 05/08 | 00:00 | 53 | 45 | 77 | 29.66 | S | 4 | 0.00 |
| 2 | 05/07 | 23:00 | 53 | 46 | 78 | 29.65 | SSW | 4 | 0.00 |
| 3 | 05/07 | 22:00 | 52 | 44 | 75 | 29.66 | S | 0 | 0.00 |
| 4 | 05/07 | 21:00 | 53 | 42 | 68 | 29.65 | S | 0 | 0.00 |
| 5 | 05/07 | 20:00 | 57 | 42 | 59 | 29.65 | S | 0 | 0.00 |
| 6 | 05/07 | 19:00 | 60 | 42 | 53 | 29.64 | SSW | 0 | 0.00 |
| 7 | 05/07 | 18:00 | 60 | 46 | 60 | 29.64 | SSE | 0 | 0.00 |
| 8 | 05/07 | 17:00 | 60 | 46 | 62 | 29.64 | ESE | 0 | 0.00 |
| 9 | 05/07 | 16:00 | 58 | 45 | 62 | 29.65 | W | 0 | 0.00 |
| 10 | 05/07 | 15:00 | 59 | 46 | 63 | 29.67 | SSW | 1 | 0.00 |
| 11 | 05/07 | 14:00 | 56 | 44 | 65 | 29.69 | WSW | 0 | 0.00 |
| 12 | 05/07 | 13:00 | 57 | 48 | 73 | 29.69 | E | 4 | 0.00 |
| 13 | 05/07 | 12:00 | 54 | 45 | 74 | 29.71 | ENE | 5 | 0.00 |
| 14 | 05/07 | 11:00 | 53 | 45 | 77 | 29.71 | NNE | 2 | 0.00 |
| 15 | 05/07 | 10:00 | 54 | 49 | 84 | 29.71 | ESE | 7 | 0.00 |
| 16 | 05/07 | 09:00 | 50 | 47 | 90 | 29.72 | E | 0 | 0.00 |
| 17 | 05/07 | 08:00 | 49 | 46 | 90 | 29.71 | NE | 3 | 0.01 |
| 18 | 05/07 | 07:00 | 48 | 45 | 90 | 29.71 | ESE | 0 | 0.00 |
| 19 | 05/07 | 06:00 | 47 | 44 | 90 | 29.69 | NNE | 0 | 0.00 |
| 20 | 05/07 | 05:00 | 47 | 44 | 91 | 29.69 | ESE | 0 | 0.00 |
| 21 | 05/07 | 04:00 | 48 | 45 | 90 | 29.68 | ESE | 3 | 0.01 |
| 22 | 05/07 | 03:00 | 48 | 45 | 90 | 29.68 | SE | 0 | 0.05 |
| 23 | 05/07 | 02:00 | 48 | 45 | 90 | 29.68 | SE | 0 | 0.01 |
| 24 | 05/07 | 01:00 | 48 | 45 | 90 | 29.68 | E | 0 | 0.00 |